Snel-info
Kleurcode:
Groen
Er mag gevlogen worden.
Laatste update: 06/02/2018
Kleurcode informatie

Grasmaaien:

Geen maaibeurten gepland.

Volgende vliegdagen:

  • ma 2 april : Paasmaandag
  • di 1 mei : Feest vd Arbeid
  • do 10 mei : O.H. Hemelvaart
Alle extra vliegdagen

Weersituatie op PMF:

0086_18_08_07__06_Nard.jpg

Huidige weersituatie

Huidig weerbeeld in Kleine Brogel, Belgium
Huidige wind in Kleine Brogel, Belgium

Dit is het bericht voor Kleine Brogel, Belgium en werd 19 minuten geleden gemaakt.
De wind waaide met een snelheid van 3.6 meter per seconde (13 km/h) uit het noordoosten (040°).
De temperatuur was -3 °C. De gevoelstemperatuur was -8 °C. De atmosferische druk was 1022 hPa. De relative luchtvochtigheid was 86.0%. Het algemene zicht was 7.0 kilometer.

De onbewerkte METAR gegevens waarop dit bericht is gebaseerd zijn:
EBBL 230225Z AUTO 04007KT 7000 NCD M03/M05 Q1022 WHT


Opmerking:
De wind blijkt op PMF meestal iets krachtiger te waaien dan op Kleine Brogel. De windrichting klopt dan weer wel.




KMI

De weersvoorspellingen van het KMI vind je via deze link.


Buienradar

Op www.buienradar.nl kun je zelf zien waar het nu en de komende uren regent.